Terminal Aerodrome Forecast
Issued by NWS

Current Version | Previous Version | Text Only | Print | Product List | Glossary On
Versions: 1 2 3 4 5 6 7 8 9 10 11 12 13 14 15 16 17 18 19 20
000
FTUS41 KALY 302300
TAFPSF
TAF
KPSF 302337Z 3100/3124 16008KT P6SM FEW035
     FM310400 18004KT 5SM BR OVC020
     FM310700 19003KT 3SM BR SCT008 OVC012
     FM311500 19006KT P6SM SCT012 OVC020
     FM311700 20005KT 6SM -RA BR OVC025
     FM312200 20004KT 4SM -RA BR OVC015=

USA.gov is the U.S. government's official web portal to all federal, state and local government web resources and services.